Latest Weather Observations for Sydney Airport

IDN60801

Issued at 2:32 am EDT Monday 20 November 2017 (issued every 30 minutes, with the page automatically refreshed every 10 minutes)

About weather observations | Map of weather stations | Latest weather observations for NSW | Other Formats
Station Details ID: 066037 Name: SYDNEY AIRPORT AMO Lat: -33.95 Lon: 151.17 Height: 6.0 m
Data from the previous 72 hours. | See also: Recent months at Sydney Airport
Date/Time
EDT
Temp
°C
App
Temp
°C
Dew
Point
°C
Rel
Hum
%
Delta-T
°C
Wind Press
QNH
hPa
Press
MSL
hPa
Rain since
9am
mm
Dir  Spd
km/h
Gust
km/h
Spd
kts
Gust
kts
20/02:00am 18.5 17.4 14.2 76 2.5 SSE 13 15 7 8 1024.0 1024.0 0.0
20/01:30am 18.2 17.4 14.1 77 2.3 SE 11 13 6 7 1024.1 1024.1 0.0
20/01:00am 17.8 16.4 13.5 76 2.4 SE 13 15 7 8 1024.2 1024.2 0.0
20/12:30am 18.2 15.7 12.4 69 3.2 ESE 17 19 9 10 1024.4 1024.4 0.0
20/12:00am 18.6 15.7 12.4 67 3.4 ESE 19 24 10 13 1024.7 1024.7 0.0
 
Date/Time
EDT
Temp
°C
App
Temp
°C
Dew
Point
°C
Rel
Hum
%
Delta-T
°C
Wind Press
QNH
hPa
Press
MSL
hPa
Rain since
9am
mm
Dir  Spd
km/h
Gust
km/h
Spd
kts
Gust
kts
19/11:30pm 19.1 16.2 12.4 65 3.7 ESE 19 22 10 12 1024.7 1024.7 0.0
19/11:00pm 19.1 16.7 12.8 67 3.5 ESE 17 24 9 13 1024.7 1024.7 0.0
19/10:30pm 19.5 16.8 12.8 65 3.8 ESE 19 24 10 13 1024.9 1024.9 0.0
19/10:00pm 19.7 17.2 13.6 68 3.5 SE 19 20 10 11 1025.0 1025.0 0.0
19/09:30pm 19.5 17.4 13.7 69 3.3 ESE 17 22 9 12 1024.8 1024.8 0.0
19/09:00pm 19.7 17.6 13.6 68 3.5 ESE 17 20 9 11 1024.5 1024.5 0.0
19/08:30pm 19.6 17.2 13.8 69 3.3 ESE 19 24 10 13 1024.1 1024.1 0.0
19/08:00pm 19.7 17.1 13.9 69 3.3 ESE 20 28 11 15 1023.9 1023.9 0.0
19/07:30pm 20.1 17.7 14.5 70 3.3 ESE 20 28 11 15 1023.7 1023.7 0.0
19/07:00pm 19.7 18.3 15.6 77 2.4 ESE 17 24 9 13 1023.4 1023.4 0.0
19/06:30pm 19.9 18.9 15.5 76 2.6 E 15 19 8 10 1023.2 1023.2 0.0
19/06:22pm 19.5 18.0 15.4 77 2.4 ENE 17 19 9 10 1023.3 1023.3 0.0
19/06:00pm 19.8 17.8 15.0 74 2.8 ENE 19 24 10 13 1023.3 1023.3 0.0
19/05:56pm 20.1 18.0 15.3 74 2.8 ENE 20 30 11 16 1023.2 1023.2 0.0
19/05:30pm 20.5 16.7 14.6 69 3.4 E 28 35 15 19 1023.1 1023.1 0.0
19/05:00pm 20.9 17.1 14.8 68 3.6 E 28 35 15 19 1022.8 1022.8 0.0
19/04:30pm 21.1 17.9 15.4 70 3.4 ESE 26 37 14 20 1022.6 1022.6 0.0
19/04:00pm 22.0 18.7 15.1 65 4.1 SE 26 32 14 17 1022.6 1022.6 0.0
19/03:30pm 23.5 20.7 15.3 60 4.9 SE 24 32 13 17 1022.8 1022.8 0.0
19/03:00pm 23.8 20.8 14.8 57 5.3 ESE 24 33 13 18 1023.0 1023.0 0.0
19/02:30pm 22.3 18.1 13.6 58 5.0 ESE 28 35 15 19 1023.2 1023.2 0.0
19/02:00pm 23.6 19.8 12.3 49 6.4 ESE 24 33 13 18 1023.4 1023.4 0.0
19/01:30pm 23.3 19.2 12.6 51 6.1 ESE 26 32 14 17 1023.4 1023.4 0.0
19/01:00pm 22.8 19.2 14.1 58 5.1 SE 26 32 14 17 1023.5 1023.5 0.0
19/12:30pm 22.2 18.8 13.8 59 4.9 ESE 24 35 13 19 1023.6 1023.6 0.0
19/12:00pm 22.2 19.4 13.3 57 5.1 SE 20 28 11 15 1023.7 1023.7 0.0
19/11:30am 22.0 19.3 13.4 58 5.0 SE 20 26 11 14 1023.9 1023.9 0.0
19/11:00am 21.4 19.0 12.8 58 4.9 SE 17 24 9 13 1023.9 1023.9 0.0
19/10:30am 21.2 19.3 13.1 60 4.6 SE 15 20 8 11 1023.9 1023.9 0.0
19/10:00am 21.1 18.7 12.8 59 4.7 SE 17 20 9 11 1023.8 1023.8 0.0
19/09:30am 21.7 19.6 12.5 56 5.2 ESE 15 20 8 11 1023.8 1023.8 0.0
19/09:00am 21.2 19.1 12.3 57 5.0 ESE 15 20 8 11 1023.7 1023.7 5.0
19/08:30am 21.6 20.0 13.8 61 4.5 E 15 19 8 10 1023.6 1023.6 5.0
19/08:00am 21.2 19.2 13.9 63 4.2 E 17 22 9 12 1023.4 1023.4 5.0
19/07:30am 20.7 19.7 14.6 68 3.6 E 13 17 7 9 1023.0 1023.0 5.0
19/07:00am 19.7 19.1 14.7 73 2.9 E 11 13 6 7 1022.5 1022.5 5.0
19/06:30am 18.6 17.6 14.5 77 2.4 E 13 15 7 8 1022.2 1022.2 5.0
19/06:00am 17.7 16.0 13.6 77 2.3 E 15 15 8 8 1021.9 1021.9 5.0
19/05:30am 17.1 15.5 12.8 76 2.4 E 13 15 7 8 1021.5 1021.5 5.0
19/05:00am 17.7 15.5 13.2 75 2.5 E 17 19 9 10 1021.1 1021.1 5.0
19/04:30am 18.0 16.6 13.5 75 2.5 ENE 13 19 7 10 1021.0 1021.0 5.0
19/04:00am 18.1 16.4 13.6 75 2.5 E 15 20 8 11 1021.0 1021.0 5.0
19/03:30am 18.4 16.0 13.9 75 2.6 E 19 24 10 13 1020.8 1020.8 5.0
19/03:00am 18.2 15.7 14.1 77 2.3 E 20 28 11 15 1020.6 1020.6 5.0
19/02:30am 18.1 15.8 14.2 78 2.2 E 19 24 10 13 1020.6 1020.6 5.0
19/02:00am 17.7 15.4 14.2 80 2.0 E 19 24 10 13 1020.7 1020.7 5.0
19/01:30am 18.1 16.6 15.2 83 1.7 ENE 17 24 9 13 1020.9 1020.9 5.0
19/01:00am 18.2 18.7 15.6 85 1.5 NE 7 11 4 6 1021.1 1021.1 5.0
19/12:30am 18.4 18.4 16.2 87 1.3 N 11 17 6 9 1021.5 1021.5 5.0
19/12:00am 17.6 14.2 15.8 89 1.1 NNE 28 33 15 18 1021.9 1021.9 4.0
 
Date/Time
EDT
Temp
°C
App
Temp
°C
Dew
Point
°C
Rel
Hum
%
Delta-T
°C
Wind Press
QNH
hPa
Press
MSL
hPa
Rain since
9am
mm
Dir  Spd
km/h
Gust
km/h
Spd
kts
Gust
kts
18/11:30pm 17.8 14.9 15.2 85 1.5 ENE 24 33 13 18 1021.7 1021.7 3.4
18/11:00pm 18.6 16.0 14.9 79 2.1 NE 22 30 12 16 1021.6 1021.6 3.0
18/10:30pm 18.5 15.9 15.0 80 2.0 NE 22 28 12 15 1021.6 1021.6 3.0
18/10:00pm 19.4 19.2 16.6 84 1.7 NNE 13 17 7 9 1021.4 1021.4 2.8
18/09:49pm 18.5 17.2 15.9 85 1.5 NNE 17 22 9 12 1021.5 1021.5 2.8
18/09:30pm 18.7 16.6 16.3 86 1.4 NNE 22 30 12 16 1021.5 1021.5 2.4
18/09:17pm 19.1 16.7 15.4 79 2.2 NE 22 32 12 17 1021.4 1021.4 1.2
18/09:00pm 19.3 17.6 16.3 83 1.8 NE 20 28 11 15 1021.2 1021.2 1.0
18/08:30pm 18.5 15.9 15.0 80 2.0 NE 22 30 12 16 1020.9 1020.9 0.8
18/08:00pm 20.2 17.0 15.4 74 2.8 ENE 26 33 14 18 1020.5 1020.5 0.6
18/07:30pm 20.4 17.5 15.0 71 3.2 ENE 24 33 13 18 1020.2 1020.2 0.6
18/07:00pm 20.2 15.3 14.3 69 3.4 ENE 33 48 18 26 1019.9 1019.9 0.6
18/06:30pm 21.6 17.2 14.0 62 4.4 ENE 30 39 16 21 1019.6 1019.6 0.6
18/06:00pm 22.1 17.4 14.2 61 4.6 ENE 32 43 17 23 1019.3 1019.3 0.6
18/05:30pm 22.3 18.5 14.7 62 4.5 ENE 28 37 15 20 1019.2 1019.2 0.6
18/05:00pm 21.7 17.9 14.8 65 4.1 ENE 28 33 15 18 1019.3 1019.3 0.6
18/04:30pm 21.5 17.7 14.6 65 4.0 ENE 28 37 15 20 1019.4 1019.4 0.6
18/04:00pm 21.7 17.1 14.6 64 4.2 ENE 32 39 17 21 1019.4 1019.4 0.6
18/03:30pm 22.2 17.5 14.8 63 4.4 ENE 33 44 18 24 1019.5 1019.5 0.6
18/03:00pm 22.2 17.1 13.8 59 4.9 ENE 33 44 18 24 1019.5 1019.5 0.6
18/02:30pm 22.1 17.1 15.0 64 4.2 ENE 35 46 19 25 1019.7 1019.7 0.6
18/02:00pm 22.7 17.5 15.5 64 4.3 ENE 37 50 20 27 1019.9 1019.9 0.6
18/01:30pm 23.1 18.2 16.4 66 4.1 ENE 37 48 20 26 1019.9 1019.9 0.6
18/01:00pm 21.2 18.3 17.0 77 2.6 ENE 28 39 15 21 1020.3 1020.3 0.6
18/12:38pm 19.9 16.1 17.1 84 1.7 NE 33 52 18 28 1020.3 1020.3 0.6
18/12:30pm 20.5 16.0 16.5 78 2.4 ENE 35 43 19 23 1020.4 1020.4 0.4
18/12:00pm 21.0 15.7 15.3 70 3.4 ENE 37 48 20 26 1020.4 1020.4 0.0
18/11:53am 21.0 16.2 15.5 71 3.3 ENE 35 54 19 29 1020.4 1020.4 0.0
18/11:30am 21.6 16.7 15.4 68 3.7 NE 35 46 19 25 1020.5 1020.5 0.0
18/11:00am 21.5 16.0 15.8 70 3.4 NE 39 52 21 28 1020.4 1020.4 0.0
18/10:51am 21.0 16.9 16.0 73 3.0 NE 32 52 17 28 1020.3 1020.3 0.0
18/10:30am 19.6 17.6 17.4 87 1.3 ENE 24 32 13 17 1020.1 1020.1 0.0
18/10:00am 20.2 15.5 14.8 71 3.2 NE 33 44 18 24 1020.0 1020.0 0.0
18/09:30am 21.0 17.9 17.4 80 2.2 NE 30 39 16 21 1019.8 1019.8 0.0
18/09:00am 19.4 16.9 17.0 86 1.5 NE 26 33 14 18 1019.8 1019.8 2.4
18/08:39am 18.8 14.6 17.1 90 1.0 NNE 35 44 19 24 1019.8 1019.8 2.0
18/08:30am 19.8 17.4 16.4 81 2.0 NE 24 37 13 20 1019.8 1019.8 0.0
18/08:26am 20.6 19.1 17.8 84 1.7 NE 22 32 12 17 1019.7 1019.7 0.0
18/08:16am 20.2 16.7 17.4 84 1.7 NE 32 50 17 27 1019.6 1019.6 0.0
18/08:00am 22.0 18.8 15.4 66 3.9 NE 26 33 14 18 1019.2 1019.2 0.0
18/07:30am 21.8 18.6 15.4 67 3.8 NNE 26 35 14 19 1018.9 1018.9 0.0
18/07:00am 21.4 18.7 15.5 69 3.5 NE 24 39 13 21 1018.7 1018.7 0.0
18/06:30am 20.8 17.8 15.8 73 3.0 NE 26 33 14 18 1018.7 1018.7 0.0
18/06:00am 20.7 18.8 15.7 73 3.0 NNE 20 26 11 14 1018.2 1018.2 0.0
18/05:30am 19.7 17.6 16.2 80 2.1 ENE 22 30 12 16 1018.0 1018.0 0.0
18/05:00am 20.4 17.6 15.4 73 3.0 ENE 24 30 13 16 1017.6 1017.6 0.0
18/04:30am 20.3 17.2 15.5 74 2.8 ENE 26 33 14 18 1017.3 1017.3 0.0
18/04:00am 20.3 16.4 15.5 74 2.8 ENE 30 37 16 20 1017.4 1017.4 0.0
18/03:30am 20.3 17.6 15.7 75 2.7 NE 24 32 13 17 1017.6 1017.6 0.0
18/03:00am 20.7 16.9 14.8 69 3.5 NE 28 37 15 20 1017.7 1017.7 0.0
18/02:30am 20.7 16.9 14.8 69 3.5 NE 28 35 15 19 1017.7 1017.7 0.0
18/02:00am 20.9 17.4 15.4 71 3.3 NE 28 33 15 18 1017.9 1017.9 0.0
18/01:30am 21.0 18.3 15.5 71 3.3 NNE 24 33 13 18 1018.2 1018.2 0.0
18/01:00am 20.9 18.0 15.2 70 3.4 NE 24 33 13 18 1018.6 1018.6 0.0
18/12:30am 21.1 18.4 15.6 71 3.3 NE 24 32 13 17 1018.5 1018.5 0.0
18/12:00am 20.4 18.6 16.0 76 2.6 NE 20 28 11 15 1018.8 1018.8 0.0
 
Date/Time
EDT
Temp
°C
App
Temp
°C
Dew
Point
°C
Rel
Hum
%
Delta-T
°C
Wind Press
QNH
hPa
Press
MSL
hPa
Rain since
9am
mm
Dir  Spd
km/h
Gust
km/h
Spd
kts
Gust
kts
17/11:30pm 21.8 19.5 15.6 68 3.7 NNE 22 32 12 17 1018.7 1018.7 0.0
17/11:00pm 21.1 19.1 15.6 71 3.3 NE 20 30 11 16 1018.8 1018.8 0.0
17/10:30pm 21.6 18.8 15.4 68 3.7 ENE 24 41 13 22 1018.8 1018.8 0.0
17/10:00pm 21.3 19.4 15.2 68 3.6 NE 19 26 10 14 1018.5 1018.5 0.0
17/09:30pm 21.5 18.7 15.3 68 3.7 NE 24 33 13 18 1018.4 1018.4 0.0
17/09:00pm 21.6 19.2 15.4 68 3.7 NE 22 30 12 16 1018.2 1018.2 0.0
17/08:30pm 22.0 19.4 15.8 68 3.7 ENE 24 30 13 16 1018.0 1018.0 0.0
17/08:00pm 22.0 19.2 15.4 66 3.9 NE 24 35 13 19 1017.8 1017.8 0.0
17/07:30pm 21.9 19.7 15.0 65 4.1 ENE 20 32 11 17 1017.7 1017.7 0.0
17/07:00pm 22.5 19.4 14.6 61 4.6 ENE 24 37 13 20 1017.3 1017.3 0.0
17/06:30pm 23.1 19.2 14.4 58 5.1 ENE 28 39 15 21 1016.9 1016.9 0.0
17/06:00pm 23.4 18.2 14.4 57 5.3 NE 35 46 19 25 1016.2 1016.2 0.0
17/05:32pm 24.9 20.0 15.2 54 5.8 ENE 35 54 19 29 1016.2 1016.2 0.0
17/05:30pm 24.1 19.0 14.8 56 5.5 ENE 35 52 19 28 1016.2 1016.2 0.0
17/05:17pm 23.8 19.2 15.0 57 5.3 ENE 33 52 18 28 1016.1 1016.1 0.0
17/05:00pm 23.6 19.4 15.6 61 4.8 NE 32 41 17 22 1016.1 1016.1 0.0
17/04:30pm 24.2 20.3 16.5 62 4.7 NE 32 39 17 21 1016.1 1016.1 0.0
17/04:00pm 24.1 18.7 16.1 61 4.9 NE 39 59 21 32 1016.1 1016.1 0.0
17/03:54pm 23.6 18.0 15.4 60 4.9 NE 39 59 21 32 1016.2 1016.2 0.0
17/03:30pm 24.1 18.3 13.9 53 6.0 NE 37 48 20 26 1016.6 1016.6 0.0
17/03:00pm 24.0 16.7 12.9 50 6.4 NE 43 54 23 29 1016.6 1016.6 0.0
17/02:30pm 24.0 16.5 13.8 53 6.0 NE 46 59 25 32 1016.8 1016.8 0.0
17/02:00pm 24.4 18.0 14.2 53 6.0 NE 41 54 22 29 1017.0 1017.0 0.0
17/01:30pm 25.8 18.5 15.5 53 6.2 NE 48 63 26 34 1016.9 1016.9 0.0
17/01:00pm 25.5 18.9 14.9 52 6.3 NE 43 59 23 32 1017.4 1017.4 0.0
17/12:30pm 24.7 18.4 15.6 57 5.5 NE 43 54 23 29 1017.8 1017.8 0.0
17/12:00pm 23.6 17.1 15.6 61 4.8 NE 44 57 24 31 1017.9 1017.9 0.0
17/11:30am 23.4 16.8 14.9 59 5.1 NE 43 57 23 31 1017.9 1017.9 0.0
17/11:00am 24.2 19.2 15.1 56 5.4 NE 35 54 19 29 1018.1 1018.1 0.0
17/10:57am 24.0 19.0 15.0 57 5.4 NNE 35 54 19 29 1018.0 1018.0 0.0
17/10:30am 23.8 17.7 15.3 59 5.1 NNE 41 54 22 29 1017.9 1017.9 0.0
17/10:00am 23.7 17.3 15.5 60 4.9 NNE 43 56 23 30 1017.9 1017.9 0.0
17/09:38am 23.7 18.8 15.2 59 5.1 NNE 35 56 19 30 1017.9 1017.9 0.0
17/09:30am 23.2 18.4 15.5 62 4.6 NNE 35 46 19 25 1017.9 1017.9 0.0
17/09:00am 23.1 18.3 15.7 63 4.4 NE 35 44 19 24 1018.0 1018.0 0.2
17/08:30am 22.6 19.4 16.2 67 3.9 NNE 28 35 15 19 1017.9 1017.9 0.0
17/08:00am 21.0 17.6 15.8 72 3.1 NNE 28 37 15 20 1017.7 1017.7 0.0
17/07:30am 21.4 18.7 15.7 70 3.4 NNE 24 32 13 17 1017.4 1017.4 0.0
17/07:00am 21.0 18.4 16.0 73 3.0 NNE 24 32 13 17 1016.7 1016.7 0.0
17/06:30am 20.4 17.4 15.8 75 2.7 NNE 26 32 14 17 1016.3 1016.3 0.0
17/06:00am 20.0 16.5 15.6 76 2.6 NNE 28 33 15 18 1016.1 1016.1 0.0
17/05:30am 20.0 16.9 15.6 76 2.6 NE 26 33 14 18 1016.1 1016.1 0.0
17/05:00am 20.1 17.7 15.5 75 2.7 NNE 22 28 12 15 1016.1 1016.1 0.0
17/04:30am 20.1 18.0 15.1 73 2.9 NE 20 28 11 15 1016.2 1016.2 0.0
17/04:00am 19.8 17.6 15.0 74 2.8 NE 20 26 11 14 1016.0 1016.0 0.0
17/03:30am 20.0 18.1 15.2 74 2.8 NE 19 26 10 14 1016.1 1016.1 0.0
17/03:00am 19.9 18.5 15.5 76 2.6 NE 17 26 9 14 1016.2 1016.2 0.0

Other Formats:

Comma delimited format used in spreadsheet applications
http://www.bom.gov.au/fwo/IDN60801/IDN60801.94767.axf

JavaScript Object Notation format (JSON) in row-major order
http://www.bom.gov.au/fwo/IDN60801/IDN60801.94767.json